Time;durP1;ratioP1;P1;durP2;ratioP2;P2;SDS_P1;SDS_P2;PMS_P1;PMS_P2;Temp;Humidity;BMP_temperature;BMP_pressure;BME280_temperature;BME280_humidity;BME280_pressure;Samples;Min_cycle;Max_cycle;Signal;HPM_P1;HPM_P2
2023/11/28 00:01:29;;;;;;;0.90;0.50;;;3.20;99.90;;;;;;5097679;28;20832;-42
2023/11/28 00:03:55;;;;;;;1.00;0.80;;;3.20;99.90;;;;;;5098333;28;20184;-42
2023/11/28 00:06:22;;;;;;;1.00;0.73;;;3.20;99.90;;;;;;5063121;28;20243;-41
2023/11/28 00:08:48;;;;;;;1.13;0.90;;;3.20;99.90;;;;;;5098432;28;20196;-45
2023/11/28 00:11:23;;;;;;;1.30;0.60;;;3.20;99.90;;;;;;5098024;28;20418;-46
2023/11/28 00:13:50;;;;;;;0.90;0.50;;;3.20;99.90;;;;;;5098452;28;20183;-42
2023/11/28 00:16:15;;;;;;;1.10;0.80;;;3.20;99.90;;;;;;5096809;28;20431;-42
2023/11/28 00:18:41;;;;;;;1.00;0.80;;;3.10;1.00;;;;;;5096890;28;20484;-44
2023/11/28 00:21:07;;;;;;;0.90;0.70;;;3.10;1.00;;;;;;5095929;28;20683;-44
2023/11/28 00:23:33;;;;;;;1.00;0.70;;;3.10;1.00;;;;;;5094841;28;20752;-41
2023/11/28 00:25:59;;;;;;;1.20;0.63;;;3.10;1.00;;;;;;5094633;28;20580;-43
2023/11/28 00:28:25;;;;;;;1.37;0.73;;;3.10;1.00;;;;;;5094355;28;20183;-42
2023/11/28 00:30:52;;;;;;;1.27;0.60;;;3.10;1.00;;;;;;5094963;28;20477;-40
2023/11/28 00:33:17;;;;;;;0.90;0.70;;;3.10;1.00;;;;;;5095669;28;20511;-42
2023/11/28 00:35:43;;;;;;;1.10;0.63;;;3.10;1.00;;;;;;5095593;28;20820;-41
2023/11/28 00:38:09;;;;;;;1.40;0.77;;;3.10;1.00;;;;;;5097350;28;20561;-44
2023/11/28 00:40:34;;;;;;;0.80;0.60;;;3.20;1.00;;;;;;5097246;28;20184;-42
2023/11/28 00:43:00;;;;;;;0.90;0.60;;;3.20;1.00;;;;;;5097174;28;20439;-42
2023/11/28 00:45:26;;;;;;;1.10;0.80;;;3.30;1.00;;;;;;5096241;28;20516;-41
2023/11/28 00:47:52;;;;;;;1.13;0.70;;;3.30;1.00;;;;;;5096639;28;20537;-41
2023/11/28 00:50:18;;;;;;;1.60;1.03;;;3.20;1.00;;;;;;5097341;28;20173;-43
2023/11/28 00:52:47;;;;;;;1.90;1.00;;;3.50;1.00;;;;;;5096337;28;20529;-44
2023/11/28 00:55:14;;;;;;;1.10;0.87;;;3.70;1.00;;;;;;5096873;28;20180;-44
2023/11/28 00:57:40;;;;;;;1.47;0.77;;;4.10;1.00;;;;;;5096427;28;21016;-46
2023/11/28 01:00:07;;;;;;;0.80;0.60;;;4.20;1.00;;;;;;5062084;28;20438;-41
2023/11/28 01:02:34;;;;;;;0.80;0.53;;;4.30;99.90;;;;;;5079134;28;20410;-42
2023/11/28 01:04:59;;;;;;;0.83;0.63;;;4.00;99.90;;;;;;5061468;28;20548;-44
2023/11/28 01:07:25;;;;;;;1.03;0.70;;;3.90;99.90;;;;;;5096796;28;20576;-42
2023/11/28 01:09:51;;;;;;;1.03;0.93;;;3.90;99.90;;;;;;5062682;28;20188;-41
2023/11/28 01:12:17;;;;;;;0.93;0.60;;;3.80;99.90;;;;;;5096592;28;20176;-41
2023/11/28 01:14:43;;;;;;;0.87;0.50;;;3.80;99.90;;;;;;5096985;28;20563;-42
2023/11/28 01:17:08;;;;;;;0.90;0.70;;;3.70;99.90;;;;;;5097385;28;20180;-42
2023/11/28 01:19:34;;;;;;;1.50;0.70;;;3.70;99.90;;;;;;5097792;28;20181;-44
2023/11/28 01:22:03;;;;;;;0.87;0.60;;;3.60;99.90;;;;;;5097060;28;20546;-42
2023/11/28 01:24:29;;;;;;;1.00;0.67;;;3.60;99.90;;;;;;5097052;28;20646;-40
2023/11/28 01:26:54;;;;;;;1.40;1.23;;;3.50;99.90;;;;;;5078684;28;20474;-41
2023/11/28 01:29:20;;;;;;;0.80;0.50;;;3.50;99.90;;;;;;5096160;28;20184;-41
2023/11/28 01:31:45;;;;;;;0.90;0.53;;;3.50;99.90;;;;;;5077244;28;20232;-42
2023/11/28 01:34:13;;;;;;;0.80;0.57;;;3.50;99.90;;;;;;5096497;28;20283;-42
2023/11/28 01:36:43;;;;;;;1.23;0.77;;;3.50;99.90;;;;;;5094810;28;20180;-42
2023/11/28 01:39:09;;;;;;;0.80;0.60;;;3.50;1.00;;;;;;5095512;28;20499;-41
2023/11/28 01:41:35;;;;;;;0.90;0.60;;;3.60;1.00;;;;;;5094164;28;20426;-42
2023/11/28 01:44:07;;;;;;;0.90;0.60;;;3.50;1.00;;;;;;5061060;28;20418;-41
2023/11/28 01:46:34;;;;;;;0.93;0.63;;;3.60;1.00;;;;;;5095848;28;20480;-41
2023/11/28 01:49:03;;;;;;;0.70;0.50;;;3.60;99.90;;;;;;5077988;28;20521;-43
2023/11/28 01:51:30;;;;;;;0.90;0.60;;;3.60;99.90;;;;;;5078061;28;20498;-42
2023/11/28 01:53:58;;;;;;;1.63;0.60;;;3.60;1.00;;;;;;5095909;28;20784;-42
2023/11/28 01:56:27;;;;;;;1.00;0.53;;;3.60;99.90;;;;;;5095880;28;20414;-41
2023/11/28 01:58:54;;;;;;;1.17;0.50;;;3.70;99.90;;;;;;5095840;28;20445;-42
2023/11/28 02:01:21;;;;;;;1.30;0.60;;;3.60;99.90;;;;;;5078640;28;20438;-40
2023/11/28 02:03:50;;;;;;;0.90;0.60;;;3.70;99.90;;;;;;5095994;28;20448;-41
2023/11/28 02:06:16;;;;;;;0.80;0.50;;;3.70;99.90;;;;;;5095851;28;20474;-44
2023/11/28 02:08:41;;;;;;;2.57;0.80;;;3.80;99.90;;;;;;5095668;28;20417;-43
2023/11/28 02:11:07;;;;;;;1.27;0.80;;;3.80;99.90;;;;;;5095375;28;20256;-43
2023/11/28 02:13:33;;;;;;;0.97;0.60;;;3.80;99.90;;;;;;5096275;28;20288;-43
2023/11/28 02:15:59;;;;;;;1.00;0.70;;;3.80;99.90;;;;;;5080242;28;20536;-41
2023/11/28 02:18:25;;;;;;;1.00;0.63;;;3.80;99.90;;;;;;5080079;28;20180;-42
2023/11/28 02:20:51;;;;;;;1.40;0.90;;;3.80;99.90;;;;;;5080436;28;20418;-40
2023/11/28 02:23:17;;;;;;;1.00;0.70;;;3.80;99.90;;;;;;5097512;28;20462;-43
2023/11/28 02:25:47;;;;;;;0.87;0.70;;;3.80;99.90;;;;;;5098017;28;20478;-44
2023/11/28 02:28:23;;;;;;;0.90;0.70;;;3.80;1.00;;;;;;5098146;28;20180;-41
2023/11/28 02:30:50;;;;;;;1.37;0.80;;;3.90;99.90;;;;;;5098993;28;20473;-42
2023/11/28 02:33:16;;;;;;;1.10;0.83;;;4.00;99.90;;;;;;5097906;28;20529;-41
2023/11/28 02:35:42;;;;;;;1.07;0.80;;;4.00;99.90;;;;;;5080330;28;20501;-41
2023/11/28 02:38:08;;;;;;;1.10;0.87;;;4.00;1.00;;;;;;5098651;28;20173;-43
2023/11/28 02:40:34;;;;;;;0.80;0.50;;;4.00;1.00;;;;;;5098441;28;20194;-41
2023/11/28 02:43:00;;;;;;;0.80;0.60;;;4.00;1.00;;;;;;5099292;28;20203;-42
2023/11/28 02:45:26;;;;;;;0.90;0.70;;;4.10;1.00;;;;;;5098187;28;20469;-41
2023/11/28 02:47:51;;;;;;;1.13;0.70;;;4.10;1.00;;;;;;5099017;28;20263;-41
2023/11/28 02:50:17;;;;;;;1.10;0.73;;;4.10;1.00;;;;;;5080548;28;20235;-41
2023/11/28 02:52:42;;;;;;;1.23;0.83;;;4.10;1.00;;;;;;5099437;28;20176;-41
2023/11/28 02:55:08;;;;;;;1.20;0.70;;;4.10;1.00;;;;;;5099265;28;20176;-41
2023/11/28 02:57:34;;;;;;;1.00;0.90;;;4.20;1.00;;;;;;5098312;28;20454;-44
2023/11/28 02:59:59;;;;;;;1.20;0.70;;;4.10;1.00;;;;;;5099233;28;20245;-41
2023/11/28 03:02:26;;;;;;;0.90;0.70;;;4.10;1.00;;;;;;5097652;28;20164;-45
2023/11/28 03:04:52;;;;;;;1.60;0.90;;;4.10;1.00;;;;;;5097444;28;20321;-41
2023/11/28 03:07:17;;;;;;;1.20;0.80;;;4.10;1.00;;;;;;5098059;28;20576;-40
2023/11/28 03:09:43;;;;;;;1.07;0.90;;;4.10;1.00;;;;;;5098160;28;20272;-41
2023/11/28 03:12:09;;;;;;;1.33;0.90;;;4.00;1.00;;;;;;5098166;28;20188;-42
2023/11/28 03:14:34;;;;;;;1.20;0.80;;;4.00;1.00;;;;;;5080002;28;20271;-41
2023/11/28 03:17:00;;;;;;;2.40;0.83;;;4.00;1.00;;;;;;5098219;28;20242;-41
2023/11/28 03:19:26;;;;;;;1.07;0.70;;;4.00;1.00;;;;;;5097271;28;20264;-42
2023/11/28 03:21:52;;;;;;;1.00;0.70;;;4.00;1.00;;;;;;5098308;28;20176;-42
2023/11/28 03:24:18;;;;;;;0.87;0.50;;;4.00;1.00;;;;;;5098206;28;20440;-43
2023/11/28 03:26:44;;;;;;;1.10;0.60;;;4.00;1.00;;;;;;5098261;28;20458;-41
2023/11/28 03:29:09;;;;;;;1.03;0.60;;;4.00;1.00;;;;;;5098381;28;20514;-41
2023/11/28 03:31:35;;;;;;;0.97;0.63;;;4.00;1.00;;;;;;5098537;28;20236;-42
2023/11/28 03:34:00;;;;;;;0.97;0.63;;;3.90;1.00;;;;;;5098847;28;20463;-42
2023/11/28 03:36:26;;;;;;;1.10;0.80;;;3.90;1.00;;;;;;5099456;28;20271;-41
2023/11/28 03:38:53;;;;;;;1.97;0.73;;;3.90;1.00;;;;;;5098339;28;20508;-42
2023/11/28 03:41:19;;;;;;;1.47;0.70;;;3.90;1.00;;;;;;5098088;28;20195;-43
2023/11/28 03:43:45;;;;;;;1.33;0.60;;;3.90;1.00;;;;;;5098306;28;20851;-40
2023/11/28 03:46:11;;;;;;;1.03;0.70;;;4.00;1.00;;;;;;5098056;28;20948;-42
2023/11/28 03:48:36;;;;;;;0.87;0.60;;;3.90;1.00;;;;;;5097593;28;20521;-42
2023/11/28 03:51:02;;;;;;;0.90;0.57;;;3.90;1.00;;;;;;5096621;28;20495;-41
2023/11/28 03:53:28;;;;;;;1.00;0.70;;;3.90;1.00;;;;;;5096491;28;20320;-41
2023/11/28 03:55:53;;;;;;;0.80;0.60;;;3.90;1.00;;;;;;5097086;28;20184;-41
2023/11/28 03:58:19;;;;;;;1.00;0.70;;;3.90;1.00;;;;;;5096190;28;20670;-41
2023/11/28 04:00:45;;;;;;;1.10;0.70;;;3.90;1.00;;;;;;5096462;28;20184;-45
2023/11/28 04:03:11;;;;;;;1.30;0.80;;;3.90;1.00;;;;;;5095743;28;20180;-43
2023/11/28 04:05:37;;;;;;;1.10;0.70;;;4.00;1.00;;;;;;5097984;28;20472;-42
2023/11/28 04:08:03;;;;;;;1.93;0.57;;;3.90;1.00;;;;;;5097743;28;20489;-44
2023/11/28 04:10:29;;;;;;;1.20;0.70;;;4.00;1.00;;;;;;5097635;28;20185;-41
2023/11/28 04:12:54;;;;;;;1.10;0.60;;;4.00;1.00;;;;;;5096268;28;20426;-42
2023/11/28 04:15:20;;;;;;;1.03;0.70;;;4.10;1.00;;;;;;5097488;28;20280;-41
2023/11/28 04:17:45;;;;;;;0.90;0.70;;;4.10;1.00;;;;;;5097140;28;20245;-43
2023/11/28 04:20:11;;;;;;;0.90;0.50;;;4.10;1.00;;;;;;5097841;28;20169;-42
2023/11/28 04:22:36;;;;;;;1.00;0.70;;;4.00;1.00;;;;;;5097921;28;20173;-43
2023/11/28 04:25:05;;;;;;;1.23;0.57;;;4.00;1.00;;;;;;5097287;28;20176;-42
2023/11/28 04:27:31;;;;;;;1.47;0.70;;;4.00;1.00;;;;;;5079404;28;20593;-41
2023/11/28 04:29:56;;;;;;;1.27;0.70;;;4.00;1.00;;;;;;5096949;28;20528;-46
2023/11/28 04:32:23;;;;;;;1.40;0.60;;;4.00;1.00;;;;;;5097465;28;20242;-42
2023/11/28 04:34:49;;;;;;;0.93;0.50;;;4.00;1.00;;;;;;5096577;28;20492;-41
2023/11/28 04:37:14;;;;;;;1.50;0.57;;;4.00;1.00;;;;;;5096324;28;20533;-41
2023/11/28 04:39:41;;;;;;;1.93;0.70;;;4.00;1.00;;;;;;5095660;28;20453;-41
2023/11/28 04:42:07;;;;;;;2.07;0.57;;;3.90;1.00;;;;;;5094912;28;20176;-42
2023/11/28 04:44:33;;;;;;;0.73;0.50;;;3.90;1.00;;;;;;5094255;28;20421;-44
2023/11/28 04:46:58;;;;;;;0.80;0.50;;;3.90;1.00;;;;;;5075604;28;20244;-42
2023/11/28 04:49:24;;;;;;;1.20;0.50;;;3.80;1.00;;;;;;5092373;28;20847;-41
2023/11/28 04:51:50;;;;;;;1.20;0.70;;;3.80;1.00;;;;;;5093464;28;20607;-42
2023/11/28 04:54:16;;;;;;;0.70;0.40;;;3.80;1.00;;;;;;5095151;28;20180;-42
2023/11/28 04:56:42;;;;;;;0.80;0.30;;;3.80;1.00;;;;;;5093170;28;20410;-43
2023/11/28 04:59:08;;;;;;;3.23;0.50;;;3.90;1.00;;;;;;5076666;28;20305;-44
2023/11/28 05:01:33;;;;;;;0.70;0.40;;;3.90;1.00;;;;;;5094941;28;20181;-41
2023/11/28 05:03:59;;;;;;;0.70;0.40;;;3.90;1.00;;;;;;5076753;28;20442;-44
2023/11/28 05:06:25;;;;;;;0.90;0.50;;;3.80;1.00;;;;;;5093116;28;20262;-42
2023/11/28 05:08:50;;;;;;;0.80;0.40;;;3.80;1.00;;;;;;5094095;28;20175;-41
2023/11/28 05:11:16;;;;;;;1.37;0.43;;;3.80;1.00;;;;;;5096054;28;20164;-45
2023/11/28 05:13:42;;;;;;;2.40;0.47;;;3.80;1.00;;;;;;5094567;28;20429;-41
2023/11/28 05:16:08;;;;;;;1.20;0.70;;;3.80;1.00;;;;;;5092644;28;20202;-44
2023/11/28 05:18:33;;;;;;;0.90;0.60;;;3.80;1.00;;;;;;5091697;28;20192;-43
2023/11/28 05:20:59;;;;;;;1.23;0.63;;;3.80;1.00;;;;;;5073795;28;20441;-42
2023/11/28 05:23:25;;;;;;;1.50;0.87;;;3.80;1.00;;;;;;5091817;28;20670;-43
2023/11/28 05:25:50;;;;;;;1.60;0.77;;;3.80;1.00;;;;;;5091084;28;20223;-42
2023/11/28 05:28:16;;;;;;;1.37;0.93;;;3.90;1.00;;;;;;5090517;28;20433;-41
2023/11/28 05:30:42;;;;;;;0.80;0.60;;;3.90;1.00;;;;;;5092780;28;20554;-44
2023/11/28 05:33:07;;;;;;;1.13;0.73;;;3.80;1.00;;;;;;5092458;28;20176;-43
2023/11/28 05:35:33;;;;;;;2.87;1.43;;;3.90;1.00;;;;;;5091427;28;20192;-42
2023/11/28 05:37:59;;;;;;;1.77;1.07;;;3.90;1.00;;;;;;5089444;28;20187;-43
2023/11/28 05:40:24;;;;;;;3.70;1.50;;;3.90;1.00;;;;;;5090690;28;20173;-42
2023/11/28 05:42:50;;;;;;;2.60;1.93;;;3.90;1.00;;;;;;5089198;28;20447;-41
2023/11/28 05:45:15;;;;;;;3.00;2.10;;;3.90;1.00;;;;;;5090734;28;20188;-41
2023/11/28 05:47:41;;;;;;;1.33;1.10;;;4.00;1.00;;;;;;5090074;28;20200;-43
2023/11/28 05:50:07;;;;;;;1.30;0.90;;;4.00;1.00;;;;;;5092197;28;20172;-42
2023/11/28 05:52:35;;;;;;;1.23;1.03;;;4.00;1.00;;;;;;5075376;28;20200;-45
2023/11/28 05:55:03;;;;;;;1.33;0.80;;;4.00;1.00;;;;;;5092876;28;20909;-43
2023/11/28 05:57:29;;;;;;;3.30;1.10;;;4.00;1.00;;;;;;5094099;28;20442;-42
2023/11/28 05:59:54;;;;;;;1.90;1.17;;;4.10;1.00;;;;;;5072676;28;20453;-41
2023/11/28 06:02:20;;;;;;;1.80;1.20;;;4.10;1.00;;;;;;5091143;28;20581;-42
2023/11/28 06:04:46;;;;;;;2.00;1.80;;;4.00;1.00;;;;;;5073328;28;20196;-41
2023/11/28 06:07:12;;;;;;;1.80;1.70;;;3.90;1.00;;;;;;5091858;28;20569;-42
2023/11/28 06:09:38;;;;;;;3.20;2.07;;;3.90;1.00;;;;;;5090595;28;20431;-41
2023/11/28 06:12:04;;;;;;;2.93;2.70;;;3.80;1.00;;;;;;5090544;28;20240;-41
2023/11/28 06:14:29;;;;;;;2.80;2.60;;;3.80;1.00;;;;;;5091120;28;20418;-41
2023/11/28 06:16:55;;;;;;;2.70;2.00;;;3.80;1.00;;;;;;5093192;28;20446;-41
2023/11/28 06:19:21;;;;;;;4.10;2.37;;;3.80;1.00;;;;;;5090867;28;20498;-42
2023/11/28 06:21:47;;;;;;;2.70;2.37;;;3.80;1.00;;;;;;5090124;28;20257;-40
2023/11/28 06:24:14;;;;;;;2.47;2.27;;;3.70;1.00;;;;;;5088751;28;20215;-41
2023/11/28 06:26:40;;;;;;;2.40;2.10;;;3.70;99.90;;;;;;5091312;28;20462;-45
2023/11/28 06:29:05;;;;;;;3.20;2.90;;;3.70;99.90;;;;;;5091375;28;20418;-43
2023/11/28 06:31:31;;;;;;;3.80;2.20;;;3.70;99.90;;;;;;5072444;28;20738;-42
2023/11/28 06:33:56;;;;;;;3.93;2.60;;;3.60;99.90;;;;;;5070597;28;20188;-41
2023/11/28 06:36:22;;;;;;;4.67;3.37;;;3.50;99.90;;;;;;5088178;28;20188;-41
2023/11/28 06:38:48;;;;;;;2.00;1.73;;;3.40;99.90;;;;;;5088985;28;20267;-42
2023/11/28 06:41:14;;;;;;;5.87;5.30;;;3.30;99.90;;;;;;5088386;28;20192;-42
2023/11/28 06:43:40;;;;;;;6.00;4.70;;;3.30;99.90;;;;;;5089220;28;20188;-42
2023/11/28 06:46:05;;;;;;;6.97;4.70;;;3.20;99.90;;;;;;5090690;28;20474;-44
2023/11/28 06:48:31;;;;;;;2.57;1.97;;;3.20;99.90;;;;;;5088578;28;20177;-44
2023/11/28 06:50:57;;;;;;;5.17;3.60;;;3.20;99.90;;;;;;5087371;28;20534;-42
2023/11/28 06:53:22;;;;;;;5.93;3.57;;;3.10;1.00;;;;;;5088410;28;20406;-42
2023/11/28 06:55:48;;;;;;;24.10;10.90;;;3.10;1.00;;;;;;5087987;28;20295;-42
2023/11/28 06:58:14;;;;;;;5.30;3.30;;;3.00;1.00;;;;;;5088763;28;20199;-43
2023/11/28 07:00:39;;;;;;;7.10;4.30;;;3.00;1.00;;;;;;5091934;28;20180;-44
2023/11/28 07:03:06;;;;;;;14.97;7.87;;;2.90;1.00;;;;;;5091200;28;20519;-42
2023/11/28 07:05:31;;;;;;;5.90;3.40;;;2.90;1.00;;;;;;5092149;28;20408;-41
2023/11/28 07:07:57;;;;;;;24.73;10.40;;;2.90;1.00;;;;;;5094088;28;20413;-43
2023/11/28 07:10:22;;;;;;;10.20;5.13;;;2.90;1.00;;;;;;5095789;28;20462;-41
2023/11/28 07:12:48;;;;;;;15.60;8.97;;;4.70;1.00;;;;;;5096328;28;20183;-42
2023/11/28 07:15:14;;;;;;;8.63;5.33;;;4.90;1.00;;;;;;5096893;28;20188;-41
2023/11/28 07:17:40;;;;;;;13.77;6.30;;;4.20;1.00;;;;;;5079097;28;20553;-41
2023/11/28 07:20:07;;;;;;;10.23;4.47;;;3.80;1.00;;;;;;5095830;28;20169;-41
2023/11/28 07:22:33;;;;;;;18.47;9.07;;;3.60;99.90;;;;;;5096006;28;20708;-42
2023/11/28 07:24:58;;;;;;;15.10;6.70;;;3.40;99.90;;;;;;5095261;28;20433;-42
2023/11/28 07:27:24;;;;;;;8.83;4.03;;;3.20;99.90;;;;;;5096502;28;20596;-42
2023/11/28 07:29:50;;;;;;;16.13;8.37;;;3.00;99.90;;;;;;5097289;28;20180;-41
2023/11/28 07:32:16;;;;;;;15.90;8.80;;;2.90;99.90;;;;;;5097158;28;20242;-44
2023/11/28 07:34:41;;;;;;;35.40;18.40;;;2.70;99.90;;;;;;5095443;28;20442;-43
2023/11/28 07:37:07;;;;;;;12.80;6.33;;;2.60;99.90;;;;;;5096493;28;20177;-41
2023/11/28 07:39:32;;;;;;;7.87;4.93;;;2.60;99.90;;;;;;5093973;28;20180;-42
2023/11/28 07:41:58;;;;;;;13.20;7.20;;;2.50;99.90;;;;;;5096994;28;20660;-41
2023/11/28 07:44:24;;;;;;;11.50;6.63;;;2.40;99.90;;;;;;5095937;28;20168;-44
2023/11/28 07:46:50;;;;;;;28.10;14.43;;;2.40;99.90;;;;;;5096794;28;20612;-43
2023/11/28 07:49:15;;;;;;;1.93;1.50;;;2.30;99.90;;;;;;5078900;28;20437;-41
2023/11/28 07:51:41;;;;;;;8.17;5.90;;;2.20;99.90;;;;;;5078628;28;20513;-42
2023/11/28 07:54:07;;;;;;;4.63;3.53;;;2.20;99.90;;;;;;5094501;28;20176;-41
2023/11/28 07:56:33;;;;;;;3.07;2.77;;;2.10;99.90;;;;;;5090404;28;20176;-41
2023/11/28 07:58:59;;;;;;;4.10;3.37;;;2.10;99.90;;;;;;5090966;28;20477;-40
2023/11/28 08:01:24;;;;;;;2.40;2.20;;;2.00;99.90;;;;;;5093005;28;20438;-44
2023/11/28 08:03:50;;;;;;;3.43;3.10;;;2.00;99.90;;;;;;5093279;28;20213;-41
2023/11/28 08:06:18;;;;;;;2.40;2.20;;;1.90;99.90;;;;;;5093659;28;20233;-42
2023/11/28 08:08:47;;;;;;;2.70;2.50;;;1.90;99.90;;;;;;5074526;28;20565;-41
2023/11/28 08:11:14;;;;;;;2.67;2.47;;;1.80;99.90;;;;;;5075766;28;20509;-42
2023/11/28 08:13:39;;;;;;;2.27;2.07;;;1.80;99.90;;;;;;5094107;28;20445;-41
2023/11/28 08:16:06;;;;;;;2.73;1.93;;;1.80;99.90;;;;;;5092244;28;20943;-42
2023/11/28 08:18:31;;;;;;;2.20;1.93;;;1.80;99.90;;;;;;5092204;28;20843;-41
2023/11/28 08:20:57;;;;;;;1.67;1.57;;;1.80;99.90;;;;;;5092523;28;20422;-43
2023/11/28 08:23:23;;;;;;;1.70;1.60;;;1.80;99.90;;;;;;5075307;28;20172;-41
2023/11/28 08:25:49;;;;;;;2.13;1.93;;;1.80;99.90;;;;;;5058116;28;20613;-42
2023/11/28 08:28:15;;;;;;;2.17;1.97;;;1.80;99.90;;;;;;5093215;28;20686;-43
2023/11/28 08:30:41;;;;;;;2.10;1.90;;;1.70;99.90;;;;;;5095298;28;20235;-41
2023/11/28 08:33:06;;;;;;;1.83;1.63;;;1.70;99.90;;;;;;5095735;28;20668;-41
2023/11/28 08:35:32;;;;;;;2.13;1.73;;;1.70;99.90;;;;;;5094402;28;20506;-42
2023/11/28 08:37:57;;;;;;;2.13;1.90;;;1.70;99.90;;;;;;5095193;28;20424;-41
2023/11/28 08:40:23;;;;;;;5.33;4.43;;;1.70;1.00;;;;;;5094640;28;20238;-41
2023/11/28 08:42:49;;;;;;;2.00;1.53;;;1.70;1.00;;;;;;5076092;28;20172;-40
2023/11/28 08:45:14;;;;;;;2.63;2.20;;;1.70;1.00;;;;;;5093979;28;20570;-41
2023/11/28 08:47:40;;;;;;;1.90;1.80;;;1.70;1.00;;;;;;5093974;28;20310;-41
2023/11/28 08:50:06;;;;;;;2.73;2.53;;;1.70;99.90;;;;;;5096034;28;20211;-42
2023/11/28 08:52:32;;;;;;;3.20;2.70;;;1.70;99.90;;;;;;5094941;28;20169;-40
2023/11/28 08:54:59;;;;;;;4.03;2.57;;;1.60;1.00;;;;;;5094844;28;20679;-43
2023/11/28 08:57:33;;;;;;;2.87;2.67;;;1.60;1.00;;;;;;5092583;28;20422;-43
2023/11/28 09:00:08;;;;;;;3.30;3.10;;;1.60;1.00;;;;;;5092020;28;20419;-42
2023/11/28 09:02:34;;;;;;;3.30;2.20;;;1.60;1.00;;;;;;5091854;28;20411;-41
2023/11/28 09:04:59;;;;;;;1.97;1.77;;;1.60;1.00;;;;;;5091318;28;20827;-42
2023/11/28 09:07:25;;;;;;;1.90;1.80;;;1.60;1.00;;;;;;5091806;28;20483;-41
2023/11/28 09:09:52;;;;;;;2.10;1.70;;;1.60;1.00;;;;;;5092415;28;20212;-41
2023/11/28 09:12:17;;;;;;;2.37;1.70;;;1.60;1.00;;;;;;5075056;28;20422;-43
2023/11/28 09:14:47;;;;;;;3.10;2.30;;;1.60;1.00;;;;;;5090924;28;20558;-41
2023/11/28 09:17:13;;;;;;;4.23;1.80;;;1.70;1.00;;;;;;5090607;28;20238;-43
2023/11/28 09:19:39;;;;;;;1.20;1.10;;;1.70;1.00;;;;;;5091359;28;20434;-41
2023/11/28 09:22:05;;;;;;;1.77;1.50;;;1.80;1.00;;;;;;5092815;28;20180;-43
2023/11/28 09:24:31;;;;;;;1.80;1.70;;;1.80;1.00;;;;;;5092932;28;20430;-42
2023/11/28 09:26:58;;;;;;;1.80;1.70;;;1.80;99.90;;;;;;5094456;28;20554;-40
2023/11/28 09:29:24;;;;;;;1.50;1.40;;;1.80;1.00;;;;;;5094617;28;20911;-43
2023/11/28 09:31:49;;;;;;;1.80;1.60;;;1.80;99.90;;;;;;5093294;28;20586;-38
2023/11/28 09:34:15;;;;;;;1.30;1.20;;;1.80;99.90;;;;;;5094109;28;20219;-41
2023/11/28 09:36:41;;;;;;;1.40;1.30;;;1.70;99.90;;;;;;5092027;28;20204;-40
2023/11/28 09:39:09;;;;;;;1.40;1.17;;;1.80;1.00;;;;;;5074658;28;20780;-40
2023/11/28 09:41:38;;;;;;;1.30;1.20;;;1.80;99.90;;;;;;5090922;28;20196;-40
2023/11/28 09:44:04;;;;;;;1.10;0.90;;;1.80;99.90;;;;;;5092802;28;20421;-40
2023/11/28 09:46:31;;;;;;;1.63;1.20;;;1.80;99.90;;;;;;5073864;28;20990;-40
2023/11/28 09:48:58;;;;;;;2.13;1.13;;;1.80;99.90;;;;;;5093483;28;20426;-43
2023/11/28 09:51:27;;;;;;;1.60;1.10;;;1.80;99.90;;;;;;5074633;28;20530;-40
2023/11/28 09:53:57;;;;;;;1.53;1.33;;;1.80;99.90;;;;;;5092936;28;20503;-41
2023/11/28 09:56:24;;;;;;;1.33;1.03;;;1.70;99.90;;;;;;5075062;28;20406;-40
2023/11/28 09:58:59;;;;;;;2.07;1.10;;;1.70;1.00;;;;;;5093393;28;20426;-42
2023/11/28 10:01:25;;;;;;;1.60;1.10;;;1.70;1.00;;;;;;5093256;28;20425;-42
2023/11/28 10:03:52;;;;;;;2.13;1.40;;;1.70;1.00;;;;;;5094101;28;20438;-40
2023/11/28 10:06:20;;;;;;;3.00;2.50;;;1.70;99.90;;;;;;5077742;28;20474;-41
2023/11/28 10:08:48;;;;;;;1.60;1.30;;;1.70;1.00;;;;;;5094991;28;20422;-39
2023/11/28 10:11:16;;;;;;;1.73;1.40;;;1.70;1.00;;;;;;5076861;28;20430;-40
2023/11/28 10:13:43;;;;;;;1.90;1.30;;;1.70;99.90;;;;;;5093841;28;20460;-40
2023/11/28 10:16:09;;;;;;;1.93;1.40;;;1.70;99.90;;;;;;5075733;28;20430;-40
2023/11/28 10:18:34;;;;;;;3.10;1.80;;;1.70;99.90;;;;;;5091415;28;20503;-41
2023/11/28 10:21:00;;;;;;;2.20;1.93;;;1.80;99.90;;;;;;5091804;28;20184;-41
2023/11/28 10:23:26;;;;;;;2.23;1.80;;;1.80;99.90;;;;;;5074560;28;20184;-40
2023/11/28 10:25:51;;;;;;;2.60;2.40;;;1.90;99.90;;;;;;5076117;28;20302;-41
2023/11/28 10:28:18;;;;;;;3.00;2.80;;;1.90;99.90;;;;;;5075781;28;20438;-42
2023/11/28 10:30:47;;;;;;;2.70;2.50;;;1.90;99.90;;;;;;5093130;28;20240;-40
2023/11/28 10:33:13;;;;;;;3.30;2.87;;;1.80;99.90;;;;;;5075847;28;20494;-43
2023/11/28 10:35:43;;;;;;;4.33;2.83;;;1.70;99.90;;;;;;5098232;28;20832;-40
2023/11/28 10:38:16;;;;;;;3.30;3.00;;;1.70;99.90;;;;;;5099145;28;20607;-41
2023/11/28 10:40:50;;;;;;;3.03;2.83;;;1.80;99.90;;;;;;5098711;28;20486;-41
2023/11/28 10:43:15;;;;;;;3.10;2.80;;;1.70;99.90;;;;;;5095699;28;20469;-40
2023/11/28 10:45:46;;;;;;;2.60;2.40;;;1.70;99.90;;;;;;5095974;28;20760;-40
2023/11/28 10:48:12;;;;;;;2.30;2.10;;;1.70;99.90;;;;;;5096595;28;20412;-40
2023/11/28 10:50:38;;;;;;;2.30;2.10;;;1.60;99.90;;;;;;5096025;28;20487;-40
2023/11/28 10:53:04;;;;;;;2.70;2.50;;;1.60;99.90;;;;;;5061589;28;20847;-43
2023/11/28 10:55:36;;;;;;;3.00;2.80;;;1.50;99.90;;;;;;5078422;28;20179;-41
2023/11/28 10:58:04;;;;;;;3.73;3.43;;;1.50;99.90;;;;;;5095855;28;20426;-42
2023/11/28 11:00:35;;;;;;;3.80;3.50;;;1.50;99.90;;;;;;5080049;28;20425;-38
2023/11/28 11:03:01;;;;;;;4.17;3.87;;;1.50;99.90;;;;;;5077355;28;20457;-42
2023/11/28 11:05:29;;;;;;;4.30;3.90;;;1.40;99.90;;;;;;5076765;28;20501;-40
2023/11/28 11:07:57;;;;;;;4.27;3.97;;;1.40;99.90;;;;;;5078962;28;20418;-40
2023/11/28 11:10:23;;;;;;;4.43;4.13;;;1.40;99.90;;;;;;5097818;28;20426;-39
2023/11/28 11:13:18;;;;;;;4.30;4.00;;;1.40;99.90;;;;;;5078343;28;20628;-39
2023/11/28 11:15:51;;;;;;;4.13;3.73;;;1.40;99.90;;;;;;5089774;28;20446;-41
2023/11/28 11:18:36;;;;;;;4.00;3.60;;;1.40;99.90;;;;;;5079099;28;20697;-40
2023/11/28 11:21:10;;;;;;;4.83;4.10;;;1.40;99.90;;;;;;5079383;28;20426;-42
2023/11/28 11:23:35;;;;;;;4.70;4.30;;;1.40;99.90;;;;;;5095504;28;20823;-41
2023/11/28 11:26:02;;;;;;;4.70;4.30;;;1.40;99.90;;;;;;5079163;28;20481;-39
2023/11/28 11:28:27;;;;;;;4.47;4.17;;;1.40;99.90;;;;;;5078168;28;20199;-39
2023/11/28 11:30:57;;;;;;;5.07;4.67;;;1.50;99.90;;;;;;5096747;28;20510;-39
2023/11/28 11:33:24;;;;;;;4.37;4.07;;;1.40;99.90;;;;;;5093071;28;20431;-40
2023/11/28 11:36:10;;;;;;;5.10;4.70;;;1.40;99.90;;;;;;5093312;28;20797;-40
2023/11/28 11:38:37;;;;;;;6.07;4.50;;;1.40;99.90;;;;;;5075513;28;20421;-39
2023/11/28 11:41:04;;;;;;;5.20;4.80;;;1.40;99.90;;;;;;5094543;28;20655;-39
2023/11/28 11:43:44;;;;;;;4.90;4.50;;;1.30;99.90;;;;;;5095559;28;20473;-40
2023/11/28 11:46:14;;;;;;;4.80;4.40;;;1.30;99.90;;;;;;5093846;28;21183;-38
2023/11/28 11:48:40;;;;;;;4.60;4.30;;;1.20;99.90;;;;;;5075946;28;20425;-41
2023/11/28 11:51:06;;;;;;;4.87;4.47;;;1.20;99.90;;;;;;5076082;28;20827;-39
2023/11/28 11:53:33;;;;;;;4.53;4.23;;;1.20;99.90;;;;;;5093175;28;20406;-39
2023/11/28 11:56:03;;;;;;;6.67;5.97;;;1.30;99.90;;;;;;5092364;28;20415;-40
2023/11/28 11:58:29;;;;;;;18.97;13.17;;;1.20;99.90;;;;;;5092205;28;20441;-39
2023/11/28 12:00:55;;;;;;;11.37;9.03;;;1.30;99.90;;;;;;5092184;28;20548;-39
2023/11/28 12:03:22;;;;;;;18.10;14.20;;;1.30;99.90;;;;;;5075191;28;20491;-40
2023/11/28 12:05:56;;;;;;;12.97;10.93;;;1.30;99.90;;;;;;5093496;28;20970;-40
2023/11/28 12:08:22;;;;;;;5.60;5.10;;;1.40;99.90;;;;;;5094127;28;20398;-39
2023/11/28 12:10:48;;;;;;;8.80;7.90;;;1.40;99.90;;;;;;5077229;28;20476;-41
2023/11/28 12:13:17;;;;;;;7.13;6.50;;;1.40;99.90;;;;;;5094859;28;20434;-42
2023/11/28 12:15:43;;;;;;;5.90;5.40;;;1.40;99.90;;;;;;5093201;28;20176;-41
2023/11/28 12:18:10;;;;;;;6.83;6.27;;;1.40;99.90;;;;;;5094514;28;20433;-41
2023/11/28 12:20:36;;;;;;;6.67;6.07;;;1.40;99.90;;;;;;5074315;28;20702;-42
2023/11/28 12:23:01;;;;;;;7.13;6.53;;;1.40;99.90;;;;;;5074248;28;20460;-40
2023/11/28 12:25:31;;;;;;;5.90;5.37;;;1.40;99.90;;;;;;5090826;28;20268;-40
2023/11/28 12:27:58;;;;;;;6.87;6.30;;;1.40;99.90;;;;;;5092119;28;20523;-40
2023/11/28 12:30:24;;;;;;;6.20;5.70;;;1.30;99.90;;;;;;5086976;28;20461;-38
2023/11/28 12:32:55;;;;;;;5.67;5.17;;;1.30;99.90;;;;;;5111906;28;20478;-44
2023/11/28 12:35:28;;;;;;;6.70;6.10;;;1.30;99.90;;;;;;5113967;28;20432;-41
2023/11/28 12:37:54;;;;;;;10.70;9.20;;;1.30;99.90;;;;;;5111698;28;20421;-41
2023/11/28 12:40:21;;;;;;;14.03;10.73;;;1.30;99.90;;;;;;5093677;28;21075;-42
2023/11/28 12:42:48;;;;;;;12.80;8.47;;;1.30;99.90;;;;;;5092021;28;20705;-42
2023/11/28 12:45:13;;;;;;;19.10;13.47;;;1.30;99.90;;;;;;5109011;28;20456;-40
2023/11/28 12:47:40;;;;;;;11.80;9.47;;;1.30;99.90;;;;;;5110337;28;20488;-40
2023/11/28 12:50:07;;;;;;;9.43;8.53;;;1.30;99.90;;;;;;5092770;28;20554;-40
2023/11/28 12:52:39;;;;;;;10.03;8.97;;;1.30;99.90;;;;;;5112244;28;20608;-42
2023/11/28 12:55:07;;;;;;;14.80;10.60;;;1.30;99.90;;;;;;5107265;28;20471;-40
2023/11/28 12:57:33;;;;;;;14.10;12.43;;;1.20;99.90;;;;;;5075727;28;20646;-41